Latest Weather Observations for McArthur River Mine

IDD60801

Issued at 9:41 am CST Monday 6 February 2023 (issued every 10 minutes, with the page automatically refreshed every 10 minutes)

About weather observations | Map of weather stations | Latest weather observations for NT | Other Formats
Station Details ID: 014704 Name: MCARTHUR RIVER MINE AIRPORT Lat: -16.44 Lon: 136.08 Height: 40.0 m
Data from the previous 72 hours. | See also: Recent months at McArthur River Mine
Date/Time
CST
Temp
°C
App
Temp
°C
Dew
Point
°C
Rel
Hum
%
Delta-T
°C
Wind Press
QNH
hPa
Press
MSL
hPa
Rain since
9am
mm
Dir  Spd
km/h
Gust
km/h
Spd
kts
Gust
kts
06/09:30am 30.5 30.4 16.1 41 9.0 SSW 11 19 6 10 1007.2 1006.9 0.0
06/09:00am 29.5 30.1 16.7 46 8.0 SW 9 15 5 8 1007.1 1006.8 0.0
06/08:30am 27.7 29.2 18.1 56 6.1 SW 7 11 4 6 1007.1 1006.8 0.0
06/08:00am 25.5 27.1 17.9 63 4.8 WSW 6 9 3 5 1007.0 1006.7 0.0
06/07:30am 23.6 25.5 17.6 69 3.7 W 4 7 2 4 1007.0 1006.7 0.0
06/07:00am 22.6 24.6 17.9 75 2.9 SW 4 6 2 3 1006.7 1006.4 0.0
06/06:30am 22.0 23.3 17.2 74 3.0 SW 6 7 3 4 1006.5 1006.2 0.0
06/06:00am 21.7 23.1 17.3 76 2.7 SW 6 7 3 4 1006.2 1005.9 0.0
06/05:30am 21.6 23.3 17.2 76 2.7 SW 4 7 2 4 1005.8 1005.5 0.0
06/05:00am 22.1 24.9 17.9 77 2.6 CALM 0 0 0 0 1005.6 1005.3 0.0
06/04:30am 22.3 25.1 17.9 76 2.7 CALM 0 6 0 3 1005.5 1005.2 0.0
06/04:00am 22.3 25.2 18.3 78 2.5 CALM 0 0 0 0 1005.7 1005.4 0.0
06/03:30am 22.8 24.7 17.7 73 3.2 WNW 4 7 2 4 1005.6 1005.3 0.0
06/03:00am 23.1 24.7 17.8 72 3.3 WSW 6 9 3 5 1005.7 1005.4 0.0
06/02:30am 23.0 24.6 17.9 73 3.2 WSW 6 7 3 4 1005.8 1005.5 0.0
06/02:00am 23.6 25.9 18.5 73 3.2 SW 4 7 2 4 1005.8 1005.5 0.0
06/01:30am 24.0 26.6 18.4 71 3.5 SSW 2 6 1 3 1006.0 1005.7 0.0
06/01:00am 24.7 26.1 17.4 64 4.5 SW 6 9 3 5 1006.3 1006.0 0.0
06/12:30am 25.7 27.4 18.1 63 4.8 NNW 6 9 3 5 1006.4 1006.1 0.0
06/12:00am 25.9 27.0 18.1 62 4.9 NNW 9 13 5 7 1006.8 1006.5 0.0
 
Date/Time
CST
Temp
°C
App
Temp
°C
Dew
Point
°C
Rel
Hum
%
Delta-T
°C
Wind Press
QNH
hPa
Press
MSL
hPa
Rain since
9am
mm
Dir  Spd
km/h
Gust
km/h
Spd
kts
Gust
kts
05/11:30pm 25.1 26.6 18.1 65 4.4 NW 7 11 4 6 1007.2 1006.9 0.0
05/11:00pm 25.9 27.2 17.0 58 5.5 NW 6 9 3 5 1007.3 1007.0 0.0
05/10:30pm 26.9 28.1 16.8 54 6.3 W 6 9 3 5 1007.3 1007.0 0.0
05/10:00pm 26.4 29.3 18.3 61 5.1 CALM 0 0 0 0 1006.9 1006.6 0.0
05/09:30pm 26.7 30.0 19.1 63 4.9 CALM 0 0 0 0 1006.4 1006.1 0.0
05/09:00pm 27.8 28.9 17.0 51 6.8 NNW 7 9 4 5 1006.0 1005.7 0.0
05/08:30pm 28.4 29.3 16.7 49 7.3 NNW 7 9 4 5 1005.8 1005.5 0.0
05/08:00pm 29.4 31.3 17.6 49 7.5 NNW 4 6 2 3 1005.7 1005.4 0.0
05/07:30pm 29.9 31.0 17.0 45 8.2 N 7 9 4 5 1005.3 1005.0 0.0
05/07:00pm 31.5 32.8 17.0 41 9.2 NW 6 7 3 4 1004.8 1004.5 0.0
05/06:30pm 33.5 32.2 12.5 28 12.6 NW 11 15 6 8 1004.4 1004.1 0.0
05/06:00pm 34.9 34.2 12.0 25 13.7 WNW 7 9 4 5 1004.3 1004.0 0.0
05/05:30pm 35.1 34.4 11.5 24 14.0 NNW 6 9 3 5 1004.0 1003.7 0.0
05/05:00pm 35.3 34.5 11.7 24 14.0 N 7 15 4 8 1004.0 1003.7 0.0
05/04:30pm 34.9 33.6 11.3 24 14.0 WNW 9 13 5 7 1004.0 1003.7 0.0
05/04:00pm 35.6 35.3 11.3 23 14.4 NNW 4 9 2 5 1004.2 1003.9 0.0
05/03:30pm 35.8 35.5 12.7 25 14.0 S 6 17 3 9 1004.3 1004.0 0.0
05/03:00pm 35.0 34.1 13.8 28 13.0 SE 11 17 6 9 1004.5 1004.2 0.0
05/02:30pm 34.3 34.2 13.2 28 12.8 SW 6 15 3 8 1004.7 1004.4 0.0
05/02:00pm 34.5 33.9 12.2 26 13.3 WSW 7 17 4 9 1005.1 1004.8 0.0
05/01:30pm 33.7 32.6 12.1 27 12.9 SSE 9 19 5 10 1005.4 1005.1 0.0
05/01:00pm 33.7 32.8 11.5 26 13.1 NNW 7 13 4 7 1005.9 1005.6 0.0
05/12:30pm 33.0 31.9 12.1 28 12.4 SSE 9 15 5 8 1006.4 1006.1 0.0
05/12:00pm 32.3 31.4 11.5 28 12.2 SSE 7 13 4 7 1006.7 1006.4 0.0
05/11:30am 32.5 32.2 12.7 30 11.8 SE 6 15 3 8 1007.0 1006.7 0.0
05/11:00am 31.4 31.6 14.1 35 10.5 WSW 6 13 3 7 1007.5 1007.2 0.0
05/10:30am 30.3 30.3 13.6 36 10.0 S 6 11 3 6 1007.9 1007.6 0.0
05/10:00am 28.7 27.9 13.0 38 9.3 S 9 13 5 7 1008.2 1007.9 0.0
05/09:30am 28.0 28.0 14.3 43 8.2 SSE 7 13 4 7 1008.4 1008.1 0.0
05/09:00am 26.4 26.7 15.1 49 6.8 SW 7 11 4 6 1008.4 1008.1 0.0
05/08:30am 24.2 25.6 17.4 65 4.2 W 6 7 3 4 1008.2 1007.9 0.0
05/08:00am 22.7 24.3 17.8 74 3.1 WSW 6 9 3 5 1008.0 1007.7 0.0
05/07:30am 21.7 23.2 17.7 78 2.5 SW 6 7 3 4 1008.0 1007.7 0.0
05/07:00am 20.0 21.9 16.8 82 1.9 WSW 2 6 1 3 1007.8 1007.5 0.0
05/06:30am 19.2 20.4 16.8 86 1.5 W 6 7 3 4 1007.4 1007.1 0.0
05/06:00am 19.3 20.4 16.7 85 1.6 W 6 7 3 4 1007.2 1006.9 0.0
05/05:30am 19.8 22.3 17.2 85 1.6 CALM 0 0 0 0 1006.8 1006.5 0.0
05/05:00am 19.9 21.0 16.7 82 1.9 WSW 6 7 3 4 1006.8 1006.5 0.0
05/04:30am 20.2 21.1 16.6 80 2.2 W 7 7 4 4 1006.7 1006.4 0.0
05/04:00am 20.7 23.1 16.9 79 2.3 CALM 0 0 0 0 1006.7 1006.4 0.0
05/03:30am 21.0 23.6 17.6 81 2.1 CALM 0 0 0 0 1006.6 1006.3 0.0
05/03:00am 21.6 24.3 17.8 79 2.4 CALM 0 0 0 0 1006.5 1006.2 0.0
05/02:30am 22.0 24.6 17.4 75 2.8 CALM 0 0 0 0 1006.6 1006.3 0.0
05/02:00am 23.0 24.5 15.8 64 4.3 SE 2 6 1 3 1006.6 1006.3 0.0
05/01:30am 23.7 24.6 16.0 62 4.7 SE 6 7 3 4 1006.8 1006.5 0.0
05/01:00am 25.3 25.2 15.0 53 6.2 ESE 9 17 5 9 1007.0 1006.7 0.0
05/12:30am 24.1 25.6 17.6 67 4.1 SE 6 9 3 5 1007.3 1007.0 0.0
05/12:00am 24.2 25.1 16.7 63 4.6 E 7 11 4 6 1007.5 1007.2 0.0
 
Date/Time
CST
Temp
°C
App
Temp
°C
Dew
Point
°C
Rel
Hum
%
Delta-T
°C
Wind Press
QNH
hPa
Press
MSL
hPa
Rain since
9am
mm
Dir  Spd
km/h
Gust
km/h
Spd
kts
Gust
kts
04/11:30pm 24.1 25.0 16.1 61 4.9 NNE 6 9 3 5 1007.8 1007.5 0.0
04/11:00pm 24.3 25.8 16.6 62 4.7 W 4 6 2 3 1007.7 1007.4 0.0
04/10:30pm 25.5 26.5 16.4 57 5.6 SSW 6 7 3 4 1007.6 1007.3 0.0
04/10:00pm 27.0 27.0 15.1 48 7.2 SSW 9 11 5 6 1007.3 1007.0 0.0
04/09:30pm 27.2 26.8 15.2 47 7.3 SSW 11 13 6 7 1007.0 1006.7 0.0
04/09:00pm 27.7 27.0 14.3 43 8.1 SW 11 13 6 7 1006.7 1006.4 0.0
04/08:30pm 29.4 28.8 13.6 38 9.5 SSW 9 13 5 7 1006.1 1005.8 0.0
04/08:00pm 29.4 28.8 13.6 38 9.4 SSW 9 13 5 7 1005.6 1005.3 0.0
04/07:30pm 30.9 29.7 12.8 33 10.8 SSW 11 13 6 7 1005.1 1004.8 0.0
04/07:00pm 32.2 31.5 11.9 29 12.0 S 7 9 4 5 1004.8 1004.5 0.0
04/06:30pm 33.2 30.9 10.5 25 13.2 SSE 13 17 7 9 1004.3 1004.0 0.0
04/06:00pm 33.7 31.0 10.3 24 13.6 SE 15 20 8 11 1004.0 1003.7 0.0
04/05:30pm 33.9 31.8 11.1 25 13.4 SE 13 19 7 10 1003.6 1003.3 0.0
04/05:00pm 34.2 31.2 10.7 24 13.7 SE 17 24 9 13 1003.3 1003.0 0.0
04/04:30pm 34.6 32.3 11.7 25 13.6 SE 15 22 8 12 1003.2 1002.9 0.0
04/04:00pm 34.3 32.3 12.6 27 13.0 SE 15 24 8 13 1003.4 1003.1 0.0
04/03:30pm 34.2 31.4 11.4 25 13.5 SSE 17 26 9 14 1003.5 1003.2 0.0
04/03:00pm 34.5 32.0 12.2 26 13.4 S 17 24 9 13 1003.7 1003.4 0.0
04/02:30pm 34.4 32.5 14.3 30 12.4 SE 17 28 9 15 1004.1 1003.8 0.0
04/02:00pm 34.0 30.8 11.2 25 13.4 SE 19 28 10 15 1004.4 1004.1 0.0
04/01:30pm 33.8 30.5 11.6 26 13.1 SSE 20 32 11 17 1004.8 1004.5 0.0
04/01:00pm 33.2 30.9 11.7 27 12.7 SE 15 24 8 13 1005.1 1004.8 0.0
04/12:30pm 33.1 30.9 13.2 30 12.0 SSE 17 26 9 14 1005.4 1005.1 0.0
04/12:00pm 32.7 29.7 11.8 28 12.4 SE 19 32 10 17 1005.9 1005.6 0.0
04/11:30am 32.5 29.8 11.6 28 12.3 SE 17 24 9 13 1006.4 1006.1 0.0
04/11:00am 31.7 28.7 12.0 30 11.6 SSE 19 28 10 15 1006.6 1006.3 0.0
04/10:30am 31.0 27.8 11.4 30 11.4 SE 19 28 10 15 1006.9 1006.6 0.0
04/10:00am 30.3 26.6 12.7 34 10.4 SSE 24 30 13 16 1006.9 1006.6 0.0
04/09:30am 29.7 25.8 12.2 34 10.3 SSE 24 33 13 18 1006.9 1006.6 0.0
04/09:00am 28.7 28.1 15.6 45 8.1 SSE 13 17 7 9 1007.0 1006.7 0.0
04/08:30am 26.0 27.4 17.9 61 5.1 S 7 11 4 6 1006.8 1006.5 0.0
04/08:00am 23.4 26.5 18.7 75 3.0 CALM 0 6 0 3 1006.7 1006.4 0.0
04/07:30am 21.6 24.4 18.0 80 2.2 CALM 0 0 0 0 1006.4 1006.1 0.0
04/07:00am 20.0 22.6 17.6 86 1.5 CALM 0 0 0 0 1006.2 1005.9 0.0
04/06:30am 19.2 20.6 17.3 89 1.2 WSW 6 7 3 4 1005.7 1005.4 0.0
04/06:00am 19.6 21.2 17.9 90 1.1 SW 6 7 3 4 1005.3 1005.0 0.0
04/05:30am 19.4 20.9 17.7 90 1.0 WSW 6 7 3 4 1005.0 1004.7 0.0
04/05:00am 19.6 22.4 17.9 90 1.0 CALM 0 0 0 0 1004.8 1004.5 0.0
04/04:30am 20.1 22.6 18.2 89 1.2 SSW 2 6 1 3 1004.5 1004.2 0.0
04/04:00am 19.9 22.9 18.4 91 0.9 CALM 0 0 0 0 1004.5 1004.2 0.0
04/03:30am 20.0 22.9 18.3 90 1.1 CALM 0 0 0 0 1004.2 1003.9 0.0
04/03:00am 20.2 23.1 18.1 88 1.3 CALM 0 0 0 0 1004.0 1003.7 0.0
04/02:30am 20.5 23.4 18.3 87 1.4 CALM 0 0 0 0 1004.0 1003.7 0.0
04/02:00am 20.8 22.7 18.6 87 1.4 WNW 6 6 3 3 1003.9 1003.6 0.0
04/01:30am 21.3 23.0 18.1 82 2.0 NNW 6 6 3 3 1004.0 1003.7 0.0
04/01:00am 21.7 22.8 16.6 73 3.1 WNW 6 7 3 4 1004.3 1004.0 0.0
04/12:30am 21.9 23.3 17.3 75 2.8 W 6 7 3 4 1004.6 1004.3 0.0
04/12:00am 22.2 23.7 17.6 75 2.9 W 6 6 3 3 1004.8 1004.5 0.0
 
Date/Time
CST
Temp
°C
App
Temp
°C
Dew
Point
°C
Rel
Hum
%
Delta-T
°C
Wind Press
QNH
hPa
Press
MSL
hPa
Rain since
9am
mm
Dir  Spd
km/h
Gust
km/h
Spd
kts
Gust
kts
03/11:30pm 22.6 24.4 18.4 77 2.6 WSW 6 7 3 4 1004.8 1004.5 0.0
03/11:00pm 23.5 25.0 17.7 70 3.6 SW 6 7 3 4 1004.8 1004.5 0.0
03/10:30pm 24.0 25.1 17.0 65 4.3 SSW 7 9 4 5 1004.6 1004.3 0.0
03/10:00pm 24.4 25.6 16.9 63 4.6 WSW 6 7 3 4 1004.3 1004.0 0.0
03/09:30pm 25.5 26.6 16.6 58 5.5 SW 6 7 3 4 1003.9 1003.6 0.0
03/09:00pm 27.0 27.0 15.1 48 7.2 SSW 9 11 5 6 1003.6 1003.3 0.0
03/08:30pm 27.8 27.5 14.4 43 8.1 SW 9 11 5 6 1003.6 1003.3 0.0
03/08:00pm 28.9 28.2 14.3 40 8.8 SSW 11 13 6 7 1003.2 1002.9 0.0
03/07:30pm 30.0 29.4 14.5 38 9.5 SW 11 15 6 8 1002.8 1002.5 0.0
03/07:00pm 31.4 30.6 14.1 35 10.5 SSW 11 15 6 8 1002.2 1001.9 0.0
03/06:30pm 33.0 30.4 13.1 30 12.0 SSW 19 26 10 14 1001.5 1001.2 0.0
03/06:00pm 33.7 30.6 12.1 27 12.9 SSW 20 28 11 15 1001.1 1000.8 0.0
03/05:30pm 34.6 32.3 14.0 29 12.7 SSW 19 28 10 15 1000.7 1000.4 0.0
03/05:00pm 34.7 32.6 14.6 30 12.4 SSW 19 28 10 15 1000.4 1000.1 0.0
03/04:30pm 34.6 33.2 15.5 32 12.0 SSW 17 24 9 13 1000.2 999.9 0.0
03/04:00pm 34.9 33.2 14.7 29 12.5 S 17 26 9 14 1000.4 1000.1 0.0
03/03:30pm 35.2 34.0 16.0 31 12.2 S 17 22 9 12 1000.4 1000.1 0.0
03/03:00pm 34.8 32.9 15.2 31 12.3 SSW 19 26 10 14 1000.5 1000.2 0.0
03/02:30pm 34.5 32.1 15.4 32 12.0 SSW 22 33 12 18 1000.8 1000.5 0.0
03/02:00pm 33.8 32.8 16.6 35 10.9 SSE 17 30 9 16 1001.3 1001.0 0.0
03/01:30pm 34.8 34.0 18.0 37 11.0 S 19 30 10 16 1001.4 1001.1 0.0
03/01:00pm 34.3 33.4 18.3 38 10.4 S 20 32 11 17 1001.7 1001.4 0.0
03/12:30pm 33.3 32.4 18.3 41 9.8 S 20 30 11 16 1002.0 1001.7 0.0
03/12:00pm 33.2 32.6 19.7 45 9.0 SSE 22 32 12 17 1002.3 1002.0 0.0
03/11:30am 31.6 30.6 19.6 49 7.9 S 24 32 13 17 1002.6 1002.3 0.0
03/11:00am 31.0 30.3 20.3 53 7.1 SSW 24 32 13 17 1003.0 1002.7 0.0
03/10:30am 30.1 29.3 20.1 55 6.6 S 24 33 13 18 1003.4 1003.1 0.0
03/10:00am 29.7 29.4 21.1 60 5.7 S 24 32 13 17 1003.3 1003.0 0.0

Other formats

Comma delimited format used in spreadsheet applications
http://www.bom.gov.au/fwo/IDD60801/IDD60801.94239.axf

JavaScript Object Notation format (JSON) in row-major order
http://www.bom.gov.au/fwo/IDD60801/IDD60801.94239.json

Data quality

Most of these data are generated automatically and are frequently updated. Quality checks on data are not normally performed. It is possible for incorrect values to appear. Refer to information at About Latest Weather Observations and please check the disclaimer before using these data.